createdAt,value
2019-03-24T00:01:41.914Z,8.26
2019-03-24T00:04:13.995Z,8.26
2019-03-24T00:06:45.998Z,8.28
2019-03-24T00:09:18.014Z,8.31
2019-03-24T00:11:50.063Z,8.27
2019-03-24T00:14:22.017Z,8.23
2019-03-24T00:16:57.175Z,8.35
2019-03-24T00:19:29.092Z,8.38
2019-03-24T00:22:01.061Z,8.21
2019-03-24T00:24:33.076Z,8.19
2019-03-24T00:27:05.152Z,8.11
2019-03-24T00:29:37.126Z,8.03
2019-03-24T00:32:09.243Z,8.02
2019-03-24T00:34:41.295Z,7.99
2019-03-24T00:37:13.286Z,7.99
2019-03-24T00:39:45.284Z,7.92
2019-03-24T00:42:17.318Z,7.98
2019-03-24T00:44:49.317Z,7.91
2019-03-24T00:47:21.403Z,7.92
2019-03-24T00:49:53.414Z,7.93
2019-03-24T00:52:25.473Z,7.88
2019-03-24T00:54:57.383Z,7.90
2019-03-24T00:57:29.442Z,7.89
2019-03-24T01:00:01.487Z,7.85
2019-03-24T01:02:33.551Z,7.77
2019-03-24T01:05:06.136Z,7.76
2019-03-24T01:07:38.135Z,7.73
2019-03-24T01:10:10.644Z,7.69
2019-03-24T01:12:42.778Z,7.65
2019-03-24T01:15:15.024Z,7.64
2019-03-24T01:17:47.062Z,7.61
2019-03-24T01:20:19.962Z,7.68
2019-03-24T01:22:51.957Z,7.56
2019-03-24T01:25:24.195Z,7.49
2019-03-24T01:27:56.147Z,7.35
2019-03-24T01:30:28.328Z,7.39
2019-03-24T01:33:00.412Z,7.39
2019-03-24T01:35:32.435Z,7.44
2019-03-24T01:38:04.481Z,7.37
2019-03-24T01:40:36.722Z,7.41
2019-03-24T01:43:08.802Z,7.34
2019-03-24T01:45:40.828Z,7.40
2019-03-24T01:48:13.280Z,7.26
2019-03-24T01:50:45.188Z,7.33
2019-03-24T01:53:17.256Z,7.17
2019-03-24T01:55:49.298Z,7.24
2019-03-24T01:58:21.361Z,7.19
2019-03-24T02:00:54.101Z,7.17
2019-03-24T02:03:26.273Z,7.18
2019-03-24T02:05:58.367Z,7.14
2019-03-24T02:08:30.469Z,7.09
2019-03-24T02:11:02.515Z,7.01
2019-03-24T02:13:34.596Z,7.04
2019-03-24T02:16:09.599Z,7.08
2019-03-24T02:18:40.368Z,7.04
2019-03-24T02:21:12.434Z,7.03
2019-03-24T02:23:44.489Z,6.98
2019-03-24T02:26:16.521Z,7.04
2019-03-24T02:28:48.462Z,7.05
2019-03-24T02:31:20.548Z,6.99
2019-03-24T02:33:52.626Z,6.83
2019-03-24T02:36:24.684Z,6.91
2019-03-24T02:38:56.753Z,6.85
2019-03-24T02:41:28.810Z,6.82
2019-03-24T02:44:00.790Z,6.86
2019-03-24T02:46:32.947Z,6.73
2019-03-24T02:49:04.959Z,6.79
2019-03-24T02:51:36.984Z,6.76
2019-03-24T02:54:09.072Z,6.70
2019-03-24T02:56:41.151Z,6.74
2019-03-24T02:59:13.255Z,6.65
2019-03-24T03:01:45.280Z,6.66
2019-03-24T03:04:17.296Z,6.67
2019-03-24T03:06:49.382Z,6.68
2019-03-24T03:09:21.518Z,6.68
2019-03-24T03:11:53.635Z,6.66
2019-03-24T03:14:25.756Z,6.70
2019-03-24T03:16:57.735Z,6.71
2019-03-24T03:19:29.875Z,6.66
2019-03-24T03:22:01.942Z,6.59
2019-03-24T03:24:34.017Z,6.59
2019-03-24T03:27:06.278Z,6.56
2019-03-24T03:29:38.327Z,6.51
2019-03-24T03:32:10.371Z,6.52
2019-03-24T03:34:42.488Z,6.44
2019-03-24T03:37:14.548Z,6.43
2019-03-24T03:39:46.510Z,6.39
2019-03-24T03:42:18.630Z,6.38
2019-03-24T03:44:50.632Z,6.29
2019-03-24T03:47:22.696Z,6.31
2019-03-24T03:49:54.677Z,6.30
2019-03-24T03:52:26.712Z,6.25
2019-03-24T03:54:58.810Z,6.31
2019-03-24T03:57:30.899Z,6.34
2019-03-24T04:00:02.957Z,6.23
2019-03-24T04:02:35.089Z,6.20
2019-03-24T04:05:08.026Z,6.21
2019-03-24T04:07:40.099Z,6.07
2019-03-24T04:10:12.459Z,6.01
2019-03-24T04:12:44.511Z,6.02
2019-03-24T04:15:16.555Z,6.07
2019-03-24T04:17:48.600Z,5.95
2019-03-24T04:20:20.648Z,5.87
2019-03-24T04:22:52.734Z,5.87
2019-03-24T04:25:24.770Z,5.82
2019-03-24T04:27:56.838Z,5.74
2019-03-24T04:30:28.889Z,5.68
2019-03-24T04:33:00.863Z,5.62
2019-03-24T04:35:32.878Z,5.54
2019-03-24T04:38:04.966Z,5.53
2019-03-24T04:40:36.998Z,5.39
2019-03-24T04:43:08.986Z,5.35
2019-03-24T04:45:41.099Z,5.29
2019-03-24T04:48:13.154Z,5.16
2019-03-24T04:50:45.160Z,5.00
2019-03-24T04:53:17.207Z,4.75
2019-03-24T04:55:49.264Z,4.86
2019-03-24T04:58:21.301Z,4.98
2019-03-24T05:00:53.292Z,5.08
2019-03-24T05:03:25.395Z,4.92
2019-03-24T05:05:57.889Z,5.01
2019-03-24T05:08:31.281Z,4.84
2019-03-24T05:11:03.304Z,4.81
2019-03-24T05:13:35.412Z,4.79
2019-03-24T05:16:07.444Z,4.69
2019-03-24T05:18:39.612Z,4.67
2019-03-24T05:21:11.606Z,4.76
2019-03-24T05:23:45.953Z,4.61
2019-03-24T05:26:17.379Z,4.56
2019-03-24T05:28:49.453Z,4.62
2019-03-24T05:31:21.475Z,4.52
2019-03-24T05:33:53.511Z,4.59
2019-03-24T05:36:25.520Z,4.65
2019-03-24T05:38:57.716Z,4.72
2019-03-24T05:41:29.759Z,4.65
2019-03-24T05:44:01.803Z,4.68
2019-03-24T05:46:33.883Z,4.66
2019-03-24T05:49:05.867Z,4.69
2019-03-24T05:51:37.883Z,4.73
2019-03-24T05:54:09.816Z,4.73
2019-03-24T05:56:41.909Z,4.71
2019-03-24T05:59:13.895Z,4.81
2019-03-24T06:01:46.016Z,4.79
2019-03-24T06:04:18.087Z,4.94
2019-03-24T06:06:50.144Z,4.86
2019-03-24T06:09:22.209Z,4.86
2019-03-24T06:11:54.299Z,4.70
2019-03-24T06:14:26.350Z,4.69
2019-03-24T06:16:58.377Z,4.63
2019-03-24T06:19:30.864Z,4.71
2019-03-24T06:22:02.899Z,4.80
2019-03-24T06:24:34.870Z,4.81
2019-03-24T06:27:06.923Z,4.83
2019-03-24T06:29:38.922Z,4.86
2019-03-24T06:32:10.873Z,4.88
2019-03-24T06:34:42.962Z,4.79
2019-03-24T06:37:14.981Z,4.77
2019-03-24T06:39:47.046Z,4.83
2019-03-24T06:42:19.092Z,5.02
2019-03-24T06:44:51.049Z,5.01
2019-03-24T06:47:23.141Z,5.30
2019-03-24T06:49:55.206Z,5.23
2019-03-24T06:52:27.302Z,5.32
2019-03-24T06:54:59.354Z,5.45
2019-03-24T06:57:32.438Z,6.14
2019-03-24T07:00:04.536Z,7.07
2019-03-24T07:02:36.639Z,7.73
2019-03-24T07:05:12.196Z,8.57
2019-03-24T07:07:44.354Z,9.39
2019-03-24T07:10:16.503Z,9.83
2019-03-24T07:12:48.618Z,9.68
2019-03-24T07:15:20.682Z,10.08
2019-03-24T07:17:52.762Z,10.81
2019-03-24T07:20:24.848Z,11.24
2019-03-24T07:22:56.914Z,11.31
2019-03-24T07:25:28.948Z,11.54
2019-03-24T07:28:01.031Z,11.38
2019-03-24T07:30:33.206Z,11.35
2019-03-24T07:33:15.255Z,12.09
2019-03-24T07:35:47.393Z,12.10
2019-03-24T07:38:19.511Z,11.97
2019-03-24T07:40:51.586Z,12.09
2019-03-24T07:43:23.627Z,12.67
2019-03-24T07:45:55.647Z,13.11
2019-03-24T07:48:27.590Z,12.73
2019-03-24T07:50:59.552Z,13.18
2019-03-24T07:53:31.754Z,13.48
2019-03-24T07:56:04.070Z,13.54
2019-03-24T07:58:36.073Z,13.43
2019-03-24T08:01:08.187Z,13.70
2019-03-24T08:03:40.264Z,14.23
2019-03-24T08:06:12.347Z,13.96
2019-03-24T08:08:44.679Z,14.66
2019-03-24T08:11:16.870Z,14.26
2019-03-24T08:13:53.817Z,14.37
2019-03-24T08:16:22.722Z,13.87
2019-03-24T08:18:54.777Z,14.42
2019-03-24T08:21:26.764Z,14.78
2019-03-24T08:23:58.785Z,14.22
2019-03-24T08:26:30.835Z,14.11
2019-03-24T08:29:02.844Z,13.99
2019-03-24T08:31:34.952Z,13.25
2019-03-24T08:34:07.181Z,12.85
2019-03-24T08:36:39.168Z,13.18
2019-03-24T08:39:11.252Z,13.16
2019-03-24T08:41:43.455Z,13.66
2019-03-24T08:44:15.571Z,12.96
2019-03-24T08:46:47.691Z,13.57
2019-03-24T08:49:19.710Z,13.70
2019-03-24T08:51:51.849Z,14.19
2019-03-24T08:54:23.857Z,13.85
2019-03-24T08:56:56.008Z,14.20
2019-03-24T08:59:28.057Z,14.17
2019-03-24T09:02:00.149Z,14.65
2019-03-24T09:04:32.286Z,14.06
2019-03-24T09:07:04.350Z,14.61
2019-03-24T09:09:36.455Z,14.64
2019-03-24T09:12:08.536Z,14.76
2019-03-24T09:14:40.648Z,15.44
2019-03-24T09:17:12.718Z,15.15
2019-03-24T09:19:44.839Z,15.29
2019-03-24T09:22:16.910Z,15.39
2019-03-24T09:24:49.016Z,15.18
2019-03-24T09:27:21.075Z,15.58
2019-03-24T09:29:53.225Z,16.26
2019-03-24T09:32:25.391Z,15.99
2019-03-24T09:34:57.505Z,14.78
2019-03-24T09:37:29.557Z,14.38
2019-03-24T09:40:01.609Z,14.63
2019-03-24T09:42:33.669Z,14.05
2019-03-24T09:45:06.069Z,13.24
2019-03-24T09:47:38.172Z,11.99
2019-03-24T09:50:10.470Z,11.18
2019-03-24T09:52:42.507Z,10.93
2019-03-24T09:55:14.618Z,10.57
2019-03-24T09:57:48.853Z,10.63
2019-03-24T10:00:20.631Z,10.66
2019-03-24T10:02:52.761Z,10.73
2019-03-24T10:05:24.801Z,10.76
2019-03-24T10:07:57.030Z,10.53
2019-03-24T10:10:29.097Z,10.30
2019-03-24T10:13:01.285Z,10.29
2019-03-24T10:15:33.343Z,10.38
2019-03-24T10:18:08.557Z,10.57
2019-03-24T10:20:40.591Z,10.65
2019-03-24T10:23:12.670Z,10.77
2019-03-24T10:25:45.744Z,10.99
2019-03-24T10:28:17.803Z,10.85
2019-03-24T10:30:50.307Z,10.91
2019-03-24T10:33:22.406Z,11.10
2019-03-24T10:35:59.713Z,10.98
2019-03-24T10:38:31.834Z,11.13
2019-03-24T10:41:04.051Z,11.24
2019-03-24T10:43:36.113Z,11.64
2019-03-24T10:46:08.576Z,11.80
2019-03-24T10:48:40.819Z,11.83
2019-03-24T10:51:13.029Z,11.35
2019-03-24T10:53:45.304Z,11.06
2019-03-24T10:56:17.520Z,11.01
2019-03-24T10:58:49.617Z,11.28
2019-03-24T11:01:21.786Z,11.60
2019-03-24T11:03:53.874Z,11.69
2019-03-24T11:06:26.094Z,11.79
2019-03-24T11:08:58.216Z,11.86
2019-03-24T11:11:30.742Z,11.51
2019-03-24T11:14:02.883Z,11.61
2019-03-24T11:16:34.964Z,11.86
2019-03-24T11:19:07.435Z,12.26
2019-03-24T11:21:39.700Z,12.25
2019-03-24T11:24:11.868Z,11.96
2019-03-24T11:26:44.096Z,12.34
2019-03-24T11:29:17.150Z,12.54
2019-03-24T11:31:49.446Z,12.48
2019-03-24T11:34:21.769Z,12.49
2019-03-24T11:36:54.963Z,12.34
2019-03-24T11:39:27.236Z,12.01
2019-03-24T11:41:59.994Z,11.78
2019-03-24T11:44:34.720Z,12.01
2019-03-24T11:47:06.727Z,12.04
2019-03-24T11:49:45.916Z,11.60
2019-03-24T11:52:13.346Z,11.69
2019-03-24T11:54:45.582Z,11.76
2019-03-24T11:57:18.147Z,11.78
2019-03-24T11:59:51.000Z,11.55
2019-03-24T12:02:23.417Z,11.74
2019-03-24T12:04:55.578Z,12.03
2019-03-24T12:07:28.462Z,12.14
2019-03-24T12:10:01.166Z,11.94
2019-03-24T12:12:33.581Z,12.03
2019-03-24T12:15:06.601Z,12.24
2019-03-24T12:17:39.388Z,12.20
2019-03-24T12:20:12.082Z,12.26
2019-03-24T12:22:47.023Z,12.78
2019-03-24T12:25:23.297Z,12.83
2019-03-24T12:27:56.016Z,12.63
2019-03-24T12:30:36.613Z,12.33
2019-03-24T12:33:09.307Z,12.26
2019-03-24T12:35:45.443Z,12.22
2019-03-24T12:38:20.753Z,11.85
2019-03-24T12:40:57.510Z,11.70
2019-03-24T12:43:30.409Z,11.42
2019-03-24T12:46:05.519Z,11.67
2019-03-24T12:48:39.878Z,11.90
2019-03-24T12:51:23.596Z,11.76
2019-03-24T12:53:59.170Z,11.69
2019-03-24T12:56:34.233Z,11.61
2019-03-24T12:59:09.927Z,11.37
2019-03-24T13:01:42.180Z,11.30
2019-03-24T13:04:14.622Z,11.04
2019-03-24T13:06:58.538Z,10.91
2019-03-24T13:09:33.554Z,10.69
2019-03-24T13:12:06.732Z,10.55
2019-03-24T13:14:43.267Z,10.56
2019-03-24T13:17:17.113Z,10.73
2019-03-24T13:19:52.925Z,10.79
2019-03-24T13:22:25.170Z,10.79
2019-03-24T13:25:00.084Z,10.82
2019-03-24T13:27:32.438Z,10.92
2019-03-24T13:30:07.713Z,11.01
2019-03-24T13:32:42.150Z,10.93
2019-03-24T13:35:24.346Z,10.76
2019-03-24T13:38:03.278Z,10.59
2019-03-24T13:43:55.399Z,10.92
2019-03-24T13:46:29.012Z,10.78
2019-03-24T13:49:02.055Z,10.77
2019-03-24T13:51:35.134Z,10.96
2019-03-24T13:54:07.978Z,10.90
2019-03-24T13:56:40.457Z,11.02
2019-03-24T13:59:12.870Z,11.00
2019-03-24T14:01:45.339Z,10.98
2019-03-24T14:04:17.966Z,10.99
2019-03-24T14:06:53.875Z,10.98
2019-03-24T14:09:26.252Z,10.90
2019-03-24T14:11:58.767Z,10.91
2019-03-24T14:14:31.401Z,10.84
2019-03-24T14:17:03.716Z,10.94
2019-03-24T14:19:35.871Z,11.17
2019-03-24T14:22:10.821Z,11.30
2019-03-24T14:24:43.641Z,11.31
2019-03-24T14:27:16.634Z,11.04
2019-03-24T14:29:49.196Z,11.03
2019-03-24T14:32:23.531Z,11.26
2019-03-24T14:34:56.062Z,11.31
2019-03-24T14:37:37.344Z,11.33
2019-03-24T14:40:10.247Z,11.51
2019-03-24T14:42:47.857Z,11.49
2019-03-24T14:45:31.435Z,11.51
2019-03-24T14:48:04.223Z,11.44
2019-03-24T14:50:37.082Z,11.47
2019-03-24T14:53:10.939Z,11.48
2019-03-24T14:55:44.318Z,11.41
2019-03-24T14:58:18.718Z,11.39
2019-03-24T15:00:51.439Z,11.47
2019-03-24T15:03:24.025Z,11.36
2019-03-24T15:05:56.603Z,11.32
2019-03-24T15:08:29.695Z,11.45
2019-03-24T15:11:02.529Z,11.39
2019-03-24T15:13:35.416Z,11.47
2019-03-24T15:16:09.696Z,11.65
2019-03-24T15:18:49.218Z,11.67
2019-03-24T15:21:26.327Z,11.76
2019-03-24T15:23:58.501Z,11.67
2019-03-24T15:26:30.933Z,11.72
2019-03-24T15:29:03.115Z,11.74
2019-03-24T15:31:35.733Z,11.75
2019-03-24T15:34:07.893Z,11.70
2019-03-24T15:36:40.167Z,11.65
2019-03-24T15:39:13.467Z,11.70
2019-03-24T15:41:45.701Z,11.86
2019-03-24T15:44:17.866Z,11.82
2019-03-24T15:46:50.148Z,11.90
2019-03-24T15:49:22.398Z,11.93
2019-03-24T15:51:54.730Z,11.92
2019-03-24T15:54:27.345Z,11.95
2019-03-24T15:56:59.585Z,12.03
2019-03-24T15:59:31.880Z,11.83
2019-03-24T16:02:04.277Z,11.87
2019-03-24T16:04:36.725Z,12.05
2019-03-24T16:07:08.815Z,11.89
2019-03-24T16:09:41.009Z,11.98
2019-03-24T16:12:13.208Z,12.06
2019-03-24T16:14:45.607Z,12.11
2019-03-24T16:17:17.784Z,12.03
2019-03-24T16:19:50.132Z,11.87
2019-03-24T16:22:22.303Z,12.05
2019-03-24T16:24:54.777Z,12.10
2019-03-24T16:27:26.979Z,12.06
2019-03-24T16:29:59.261Z,11.76
2019-03-24T16:32:31.539Z,11.80
2019-03-24T16:35:03.710Z,11.69
2019-03-24T16:37:36.115Z,11.82
2019-03-24T16:40:08.564Z,11.75
2019-03-24T16:42:41.138Z,11.65
2019-03-24T16:45:15.510Z,11.63
2019-03-24T16:47:47.552Z,11.46
2019-03-24T16:50:22.418Z,11.18
2019-03-24T16:52:54.867Z,11.08
2019-03-24T16:55:31.248Z,11.08
2019-03-24T16:58:05.883Z,10.84
2019-03-24T17:00:38.710Z,10.65
2019-03-24T17:03:11.686Z,10.60
2019-03-24T17:05:44.958Z,10.62
2019-03-24T17:08:18.392Z,10.60
2019-03-24T17:11:05.091Z,10.45
2019-03-24T17:13:27.777Z,10.41
2019-03-24T17:16:02.473Z,10.31
2019-03-24T17:18:36.109Z,10.31
2019-03-24T17:21:08.667Z,10.22
2019-03-24T17:23:43.707Z,10.07
2019-03-24T17:26:18.295Z,9.89
2019-03-24T17:28:50.592Z,9.79
2019-03-24T17:31:23.060Z,9.77
2019-03-24T17:33:57.505Z,9.75
2019-03-24T17:36:32.037Z,9.69
2019-03-24T17:39:07.415Z,9.55
2019-03-24T17:41:43.207Z,9.45
2019-03-24T17:44:20.090Z,9.24
2019-03-24T17:46:53.771Z,9.21
2019-03-24T17:49:34.936Z,9.35
2019-03-24T17:52:11.111Z,9.29
2019-03-24T17:54:44.296Z,9.23
2019-03-24T17:57:19.663Z,9.12
2019-03-24T18:00:02.827Z,9.06
2019-03-24T18:02:36.800Z,8.84
2019-03-24T18:05:18.139Z,8.67
2019-03-24T18:07:56.619Z,8.71
2019-03-24T18:10:31.060Z,8.54
2019-03-24T18:13:05.902Z,8.40
2019-03-24T18:15:42.250Z,8.43
2019-03-24T18:18:14.511Z,8.44
2019-03-24T18:20:48.532Z,8.33
2019-03-24T18:23:21.954Z,8.39
2019-03-24T18:25:54.210Z,8.31
2019-03-24T18:28:29.448Z,8.29
2019-03-24T18:31:01.786Z,8.31
2019-03-24T18:33:40.984Z,8.24
2019-03-24T18:36:13.118Z,8.27
2019-03-24T18:38:47.976Z,8.27
2019-03-24T18:41:20.115Z,8.27
2019-03-24T18:43:52.202Z,8.33
2019-03-24T18:46:24.325Z,8.22
2019-03-24T18:48:56.424Z,8.11
2019-03-24T18:51:28.743Z,8.11
2019-03-24T18:54:00.866Z,8.11
2019-03-24T18:56:32.998Z,7.98
2019-03-24T18:59:06.547Z,7.91
2019-03-24T19:01:38.667Z,7.86
2019-03-24T19:04:14.483Z,7.77
2019-03-24T19:06:46.601Z,7.63
2019-03-24T19:09:20.512Z,7.69
2019-03-24T19:11:52.631Z,7.78
2019-03-24T19:14:25.078Z,7.84
2019-03-24T19:16:57.215Z,7.85
2019-03-24T19:19:29.451Z,7.78
2019-03-24T19:22:04.263Z,7.74
2019-03-24T19:24:35.564Z,7.69
2019-03-24T19:27:07.739Z,7.77
2019-03-24T19:29:42.605Z,7.71
2019-03-24T19:32:15.385Z,7.59
2019-03-24T19:34:47.884Z,7.52
2019-03-24T19:37:20.405Z,7.37
2019-03-24T19:39:55.695Z,7.39
2019-03-24T19:42:27.940Z,7.28
2019-03-24T19:45:00.314Z,7.09
2019-03-24T19:47:33.684Z,7.02
2019-03-24T19:50:07.243Z,6.91
2019-03-24T19:52:44.578Z,7.03
2019-03-24T19:55:16.097Z,6.97
2019-03-24T19:57:48.231Z,7.00
2019-03-24T20:00:20.323Z,6.98
2019-03-24T20:02:52.665Z,6.94
2019-03-24T20:05:26.864Z,7.01
2019-03-24T20:07:59.194Z,7.10
2019-03-24T20:10:31.504Z,7.12
2019-03-24T20:13:03.655Z,7.03
2019-03-24T20:15:35.908Z,6.97
2019-03-24T20:18:08.419Z,6.97
2019-03-24T20:20:40.776Z,6.86
2019-03-24T20:23:21.550Z,6.93
2019-03-24T20:25:59.784Z,6.88
2019-03-24T20:28:32.170Z,6.81
2019-03-24T20:31:04.489Z,6.76
2019-03-24T20:33:39.436Z,6.77
2019-03-24T20:36:15.828Z,6.66
2019-03-24T20:38:57.332Z,6.56
2019-03-24T20:41:34.754Z,6.59
2019-03-24T20:44:07.067Z,6.52
2019-03-24T20:46:57.964Z,6.36
2019-03-24T20:49:34.318Z,6.34
2019-03-24T20:52:06.592Z,6.20
2019-03-24T20:54:40.178Z,6.27
2019-03-24T20:57:12.381Z,6.30
2019-03-24T20:59:44.441Z,6.20
2019-03-24T21:02:16.625Z,6.12
2019-03-24T21:04:48.890Z,6.05
2019-03-24T21:07:25.634Z,6.09
2019-03-24T21:10:01.131Z,5.92
2019-03-24T21:12:46.440Z,5.80
2019-03-24T21:15:18.626Z,5.59
2019-03-24T21:17:51.110Z,5.49
2019-03-24T21:20:23.353Z,5.36
2019-03-24T21:22:55.806Z,5.32
2019-03-24T21:25:28.725Z,5.35
2019-03-24T21:28:18.204Z,5.20
2019-03-24T21:30:50.670Z,5.12
2019-03-24T21:33:22.862Z,5.01
2019-03-24T21:35:56.869Z,4.91
2019-03-24T21:38:28.980Z,4.80
2019-03-24T21:41:01.291Z,4.90
2019-03-24T21:43:33.470Z,5.01
2019-03-24T21:46:05.657Z,5.19
2019-03-24T21:48:37.823Z,5.11
2019-03-24T21:51:09.979Z,5.06
2019-03-24T21:53:42.107Z,4.91
2019-03-24T21:56:14.485Z,4.82
2019-03-24T21:58:46.790Z,4.72
2019-03-24T22:01:22.240Z,4.65
2019-03-24T22:03:54.239Z,4.61
2019-03-24T22:06:26.278Z,4.60
2019-03-24T22:08:58.423Z,4.66
2019-03-24T22:11:30.484Z,4.54
2019-03-24T22:14:02.720Z,4.52
2019-03-24T22:16:34.791Z,4.57
2019-03-24T22:19:06.934Z,4.49
2019-03-24T22:21:39.016Z,4.55
2019-03-24T22:24:11.199Z,4.38
2019-03-24T22:26:47.536Z,4.30
2019-03-24T22:29:19.626Z,4.15
2019-03-24T22:31:51.705Z,4.17
2019-03-24T22:34:23.689Z,4.25
2019-03-24T22:36:55.722Z,4.29
2019-03-24T22:39:27.821Z,4.63
2019-03-24T22:41:59.970Z,4.86
2019-03-24T22:44:32.102Z,4.67
2019-03-24T22:47:04.187Z,4.54
2019-03-24T22:49:36.330Z,4.42
2019-03-24T22:52:08.562Z,4.49
2019-03-24T22:54:40.584Z,4.37
2019-03-24T22:57:13.087Z,4.32
2019-03-24T22:59:45.302Z,4.23
2019-03-24T23:02:26.761Z,4.48
2019-03-24T23:04:58.708Z,4.65
2019-03-24T23:07:30.719Z,4.67
2019-03-24T23:10:02.762Z,4.68
2019-03-24T23:12:34.926Z,4.58
2019-03-24T23:15:07.864Z,4.51
2019-03-24T23:17:40.067Z,4.58
2019-03-24T23:20:12.146Z,4.50
2019-03-24T23:22:44.153Z,4.45
2019-03-24T23:25:16.298Z,4.50
2019-03-24T23:27:48.408Z,4.51
2019-03-24T23:30:20.749Z,4.45
2019-03-24T23:32:52.867Z,4.51
2019-03-24T23:35:25.034Z,4.63
2019-03-24T23:37:57.528Z,4.78
2019-03-24T23:40:30.527Z,4.87
2019-03-24T23:43:02.609Z,4.74
2019-03-24T23:45:34.751Z,4.82
2019-03-24T23:48:08.094Z,4.64
2019-03-24T23:50:40.188Z,4.55
2019-03-24T23:53:12.251Z,4.53
2019-03-24T23:55:44.475Z,4.48
2019-03-24T23:58:16.582Z,4.55
